Time;durP1;ratioP1;P1;durP2;ratioP2;P2;SDS_P1;SDS_P2;PMS_P1;PMS_P2;Temp;Humidity;BMP_temperature;BMP_pressure;BME280_temperature;BME280_humidity;BME280_pressure;Samples;Min_cycle;Max_cycle;Signal;HPM_P1;HPM_P2
2021/12/22 00:02:03;;;;;;;16.40;7.85;;;;;;;;;;4862089;29;20545;-70
2021/12/22 00:04:32;;;;;;;19.40;8.15;;;;;;;;;;4861900;29;20029;-71
2021/12/22 00:06:58;;;;;;;12.30;7.20;;;;;;;;;;4861723;29;20512;-69
2021/12/22 00:09:23;;;;;;;12.98;7.05;;;;;;;;;;4861894;29;20074;-68
2021/12/22 00:11:49;;;;;;;20.65;8.75;;;;;;;;;;4861983;29;20041;-68
2021/12/22 00:14:16;;;;;;;19.80;8.52;;;;;;;;;;4861855;29;20437;-66
2021/12/22 00:16:42;;;;;;;15.18;7.55;;;;;;;;;;4861696;29;20056;-69
2021/12/22 00:19:08;;;;;;;16.60;8.05;;;;;;;;;;4861949;29;20025;-69
2021/12/22 00:21:34;;;;;;;20.92;8.70;;;;;;;;;;4861882;29;20074;-69
2021/12/22 00:23:59;;;;;;;18.52;9.90;;;;;;;;;;4861737;29;20028;-68
2021/12/22 00:26:25;;;;;;;22.83;9.02;;;;;;;;;;4861791;29;20033;-70
2021/12/22 00:28:51;;;;;;;18.77;9.20;;;;;;;;;;4861838;29;20465;-69
2021/12/22 00:31:20;;;;;;;19.85;8.93;;;;;;;;;;4860752;29;20041;-68
2021/12/22 00:33:51;;;;;;;13.82;8.02;;;;;;;;;;4861499;29;20029;-68
2021/12/22 00:36:21;;;;;;;16.35;8.52;;;;;;;;;;4856793;29;20497;-68
2021/12/22 00:38:48;;;;;;;13.02;8.13;;;;;;;;;;4842301;29;20125;-69
2021/12/22 00:41:14;;;;;;;16.33;7.45;;;;;;;;;;4843159;29;20473;-69
2021/12/22 00:43:40;;;;;;;12.75;7.40;;;;;;;;;;4843113;29;20478;-70
2021/12/22 00:46:07;;;;;;;13.85;7.45;;;;;;;;;;4842820;29;20026;-69
2021/12/22 00:48:33;;;;;;;13.25;7.45;;;;;;;;;;4842722;29;20094;-66
2021/12/22 00:51:00;;;;;;;11.80;6.93;;;;;;;;;;4843290;29;20079;-69
2021/12/22 00:53:26;;;;;;;14.48;8.02;;;;;;;;;;4843746;29;20128;-67
2021/12/22 00:55:51;;;;;;;10.52;6.60;;;;;;;;;;4843272;29;20109;-67
2021/12/22 00:58:17;;;;;;;12.70;7.47;;;;;;;;;;4857369;29;20037;-69
2021/12/22 01:00:47;;;;;;;13.32;7.88;;;;;;;;;;4843218;29;20034;-69
2021/12/22 01:03:14;;;;;;;11.40;7.13;;;;;;;;;;4843322;29;20041;-69
2021/12/22 01:05:40;;;;;;;10.15;6.15;;;;;;;;;;4849215;29;20033;-69
2021/12/22 01:08:06;;;;;;;10.75;6.18;;;;;;;;;;4847599;29;20042;-70
2021/12/22 01:10:33;;;;;;;11.18;6.43;;;;;;;;;;4843369;29;20106;-69
2021/12/22 01:13:02;;;;;;;12.05;6.65;;;;;;;;;;4843120;29;20054;-69
2021/12/22 01:15:29;;;;;;;8.52;5.40;;;;;;;;;;4843386;29;20038;-69
2021/12/22 01:18:03;;;;;;;9.30;5.55;;;;;;;;;;4843414;29;20033;-69
2021/12/22 01:20:35;;;;;;;9.43;5.85;;;;;;;;;;4843120;29;20042;-68
2021/12/22 01:23:03;;;;;;;11.82;6.20;;;;;;;;;;4843025;29;20052;-67
2021/12/22 01:25:32;;;;;;;11.75;5.55;;;;;;;;;;4842886;29;20029;-70
2021/12/22 01:27:58;;;;;;;10.50;5.53;;;;;;;;;;4842953;29;20042;-68
2021/12/22 01:30:27;;;;;;;12.88;6.15;;;;;;;;;;4842822;29;20041;-69
2021/12/22 01:32:57;;;;;;;13.98;6.55;;;;;;;;;;4843087;29;20042;-68
2021/12/22 01:35:27;;;;;;;10.75;6.22;;;;;;;;;;4842579;29;20045;-68
2021/12/22 01:37:53;;;;;;;13.43;6.68;;;;;;;;;;4842420;29;20509;-69
2021/12/22 01:40:20;;;;;;;14.05;6.68;;;;;;;;;;4845175;29;20036;-68
2021/12/22 01:42:48;;;;;;;15.90;7.53;;;;;;;;;;4874029;29;20430;-68
2021/12/22 01:45:48;;;;;;;13.55;6.47;;;;;;;;;;4861290;29;20025;-66
2021/12/22 01:51:07;;;;;;;19.23;7.75;;;;;;;;;;4860221;29;20062;-69
2021/12/22 01:53:45;;;;;;;13.90;7.18;;;;;;;;;;4860869;29;20050;-68
2021/12/22 01:56:26;;;;;;;13.48;6.50;;;;;;;;;;4860181;29;20485;-68
2021/12/22 01:58:56;;;;;;;12.77;6.35;;;;;;;;;;4867183;29;20047;-67
2021/12/22 02:01:22;;;;;;;12.30;6.22;;;;;;;;;;4879590;29;20033;-67
2021/12/22 02:03:50;;;;;;;9.10;5.60;;;;;;;;;;4879365;29;20044;-68
2021/12/22 02:06:22;;;;;;;11.07;6.47;;;;;;;;;;4879262;29;20472;-67
2021/12/22 02:08:48;;;;;;;10.27;5.90;;;;;;;;;;4879123;29;20093;-68
2021/12/22 02:11:17;;;;;;;10.60;5.75;;;;;;;;;;4878917;29;20045;-67
2021/12/22 02:13:48;;;;;;;9.90;5.25;;;;;;;;;;4879156;29;20437;-66
2021/12/22 02:16:16;;;;;;;9.73;4.68;;;;;;;;;;4878867;29;20036;-68
2021/12/22 02:18:50;;;;;;;7.95;5.15;;;;;;;;;;4879092;29;20032;-66
2021/12/22 02:21:18;;;;;;;10.68;5.22;;;;;;;;;;4875459;29;20037;-66
2021/12/22 02:23:44;;;;;;;8.00;4.90;;;;;;;;;;4860230;29;20030;-67
2021/12/22 02:26:18;;;;;;;11.32;5.18;;;;;;;;;;4860566;29;20086;-67
2021/12/22 02:28:48;;;;;;;9.45;5.30;;;;;;;;;;4848719;29;20048;-66
2021/12/22 02:31:18;;;;;;;7.78;4.88;;;;;;;;;;4860382;29;20041;-65
2021/12/22 02:33:47;;;;;;;8.43;5.05;;;;;;;;;;4860553;29;20049;-65
2021/12/22 02:38:49;;;;;;;9.40;5.30;;;;;;;;;;4856040;29;20448;-65
2021/12/22 02:41:16;;;;;;;11.13;4.88;;;;;;;;;;4853970;29;20029;-67
2021/12/22 02:43:46;;;;;;;8.77;4.75;;;;;;;;;;4858841;29;20065;-67
2021/12/22 02:46:14;;;;;;;9.63;5.40;;;;;;;;;;4855753;29;20042;-66
2021/12/22 02:48:41;;;;;;;8.35;5.07;;;;;;;;;;4860231;29;20104;-67
2021/12/22 02:51:08;;;;;;;8.80;5.57;;;;;;;;;;4860036;29;20100;-65
2021/12/22 02:53:44;;;;;;;8.88;5.00;;;;;;;;;;4859797;29;20037;-65
2021/12/22 02:56:26;;;;;;;9.00;5.05;;;;;;;;;;4860035;29;20053;-66
2021/12/22 03:04:08;;;;;;;9.25;5.28;;;;;;;;;;4860022;29;20049;-66
2021/12/22 03:06:40;;;;;;;9.57;5.13;;;;;;;;;;4860256;29;20038;-66
2021/12/22 03:09:16;;;;;;;8.50;4.65;;;;;;;;;;4859821;29;20049;-66
2021/12/22 03:11:42;;;;;;;7.30;4.40;;;;;;;;;;4860057;29;20041;-66
2021/12/22 03:14:07;;;;;;;8.23;4.40;;;;;;;;;;4859642;29;20413;-65
2021/12/22 03:16:33;;;;;;;7.43;4.45;;;;;;;;;;4860028;29;20045;-65
2021/12/22 03:18:59;;;;;;;9.73;4.43;;;;;;;;;;4859871;29;20041;-65
2021/12/22 03:21:25;;;;;;;7.75;4.10;;;;;;;;;;4860033;29;20038;-67
2021/12/22 03:23:53;;;;;;;8.52;4.05;;;;;;;;;;4859939;29;20032;-66
2021/12/22 03:26:20;;;;;;;6.13;3.80;;;;;;;;;;4859931;29;20030;-67
2021/12/22 03:28:46;;;;;;;8.73;4.57;;;;;;;;;;4859636;29;20021;-66
2021/12/22 03:31:14;;;;;;;8.95;4.93;;;;;;;;;;4859717;29;20140;-67
2021/12/22 03:33:40;;;;;;;11.60;5.40;;;;;;;;;;4859820;29;20401;-67
2021/12/22 03:36:06;;;;;;;18.63;5.35;;;;;;;;;;4859465;29;20041;-66
2021/12/22 03:38:33;;;;;;;8.70;4.82;;;;;;;;;;4859616;29;20037;-67
2021/12/22 03:41:00;;;;;;;7.00;4.65;;;;;;;;;;4859655;29;20082;-65
2021/12/22 03:43:26;;;;;;;7.32;4.25;;;;;;;;;;4859613;29;20033;-67
2021/12/22 03:45:52;;;;;;;6.45;4.03;;;;;;;;;;4859311;29;20208;-66
2021/12/22 03:48:18;;;;;;;6.25;4.28;;;;;;;;;;4859240;29;20045;-67
2021/12/22 03:50:45;;;;;;;8.90;4.47;;;;;;;;;;4857963;29;20493;-68
2021/12/22 03:53:11;;;;;;;12.32;5.40;;;;;;;;;;4858936;29;20089;-68
2021/12/22 03:55:37;;;;;;;5.97;4.10;;;;;;;;;;4859233;29;20057;-66
2021/12/22 03:58:04;;;;;;;6.40;3.95;;;;;;;;;;4873492;29;20436;-65
2021/12/22 04:00:30;;;;;;;9.48;5.07;;;;;;;;;;4859388;29;20049;-66
2021/12/22 04:02:56;;;;;;;7.38;4.50;;;;;;;;;;4859423;29;20374;-67
2021/12/22 04:05:23;;;;;;;7.82;4.65;;;;;;;;;;4859596;29;20037;-65
2021/12/22 04:07:48;;;;;;;9.57;4.60;;;;;;;;;;4859128;29;20457;-66
2021/12/22 04:10:22;;;;;;;10.43;4.40;;;;;;;;;;4867752;29;20128;-67
2021/12/22 04:12:54;;;;;;;6.97;3.83;;;;;;;;;;4877984;29;20079;-66
2021/12/22 04:15:22;;;;;;;7.32;4.05;;;;;;;;;;4878791;29;20477;-67
2021/12/22 04:17:48;;;;;;;10.77;4.03;;;;;;;;;;4879285;29;20032;-66
2021/12/22 04:20:14;;;;;;;6.47;4.20;;;;;;;;;;4880985;29;20037;-67
2021/12/22 04:22:40;;;;;;;9.05;4.45;;;;;;;;;;4877370;29;20104;-66
2021/12/22 04:25:08;;;;;;;7.93;4.18;;;;;;;;;;4881326;29;20161;-66
2021/12/22 04:27:34;;;;;;;7.25;4.50;;;;;;;;;;4882124;29;20060;-66
2021/12/22 04:30:00;;;;;;;9.40;4.47;;;;;;;;;;4881916;29;20145;-67
2021/12/22 04:32:25;;;;;;;10.75;4.80;;;;;;;;;;4864780;29;20492;-67
2021/12/22 04:34:51;;;;;;;6.40;4.47;;;;;;;;;;4883032;29;20124;-67
2021/12/22 04:37:17;;;;;;;9.55;5.53;;;;;;;;;;4880139;29;20135;-67
2021/12/22 04:39:43;;;;;;;10.57;5.50;;;;;;;;;;4881443;29;20429;-67
2021/12/22 04:42:09;;;;;;;10.27;4.97;;;;;;;;;;4881691;29;20804;-66
2021/12/22 04:44:35;;;;;;;9.57;4.82;;;;;;;;;;4881592;29;20045;-67
2021/12/22 04:47:00;;;;;;;7.55;4.78;;;;;;;;;;4864184;29;20452;-67
2021/12/22 04:49:26;;;;;;;8.35;4.55;;;;;;;;;;4860320;29;20404;-70
2021/12/22 04:51:53;;;;;;;10.65;5.07;;;;;;;;;;4881202;29;20044;-68
2021/12/22 04:54:32;;;;;;;15.90;5.35;;;;;;;;;;4881186;29;20041;-70
2021/12/22 04:56:58;;;;;;;8.25;5.13;;;;;;;;;;4864544;29;20033;-69
2021/12/22 04:59:25;;;;;;;11.23;5.15;;;;;;;;;;4853627;29;20050;-69
2021/12/22 05:01:51;;;;;;;8.48;4.90;;;;;;;;;;4862711;29;20120;-68
2021/12/22 05:04:17;;;;;;;11.95;5.20;;;;;;;;;;4862494;29;20051;-69
2021/12/22 05:06:43;;;;;;;14.30;5.57;;;;;;;;;;4867665;29;20051;-68
2021/12/22 05:09:09;;;;;;;9.93;5.25;;;;;;;;;;4880695;29;20093;-70
2021/12/22 05:11:35;;;;;;;8.68;5.20;;;;;;;;;;4880789;29;20029;-70
2021/12/22 05:14:03;;;;;;;13.75;6.00;;;;;;;;;;4880942;29;20116;-69
2021/12/22 05:16:30;;;;;;;9.25;5.53;;;;;;;;;;4880881;29;20048;-67
2021/12/22 05:19:10;;;;;;;9.38;5.20;;;;;;;;;;4880540;29;20119;-72
2021/12/22 05:21:37;;;;;;;10.23;5.10;;;;;;;;;;4880073;29;20037;-69
2021/12/22 05:24:03;;;;;;;9.52;5.78;;;;;;;;;;4863655;29;20037;-68
2021/12/22 05:26:29;;;;;;;12.40;7.35;;;;;;;;;;4848810;29;20150;-68
2021/12/22 05:28:55;;;;;;;10.32;6.07;;;;;;;;;;4843254;29;20025;-69
2021/12/22 05:31:22;;;;;;;16.45;9.10;;;;;;;;;;4843759;29;20136;-71
2021/12/22 05:33:48;;;;;;;16.75;9.02;;;;;;;;;;4866898;29;20025;-70
2021/12/22 05:36:14;;;;;;;16.25;7.55;;;;;;;;;;4874460;29;20037;-70
2021/12/22 05:38:40;;;;;;;10.80;5.38;;;;;;;;;;4860915;29;20351;-68
2021/12/22 05:41:06;;;;;;;8.48;4.82;;;;;;;;;;4859557;29;20042;-67
2021/12/22 05:43:32;;;;;;;9.48;5.07;;;;;;;;;;4860361;29;20116;-69
2021/12/22 05:45:58;;;;;;;10.93;5.50;;;;;;;;;;4860153;29;20169;-68
2021/12/22 05:48:24;;;;;;;11.18;5.93;;;;;;;;;;4853663;29;20101;-69
2021/12/22 05:50:53;;;;;;;13.20;5.93;;;;;;;;;;4852685;29;20037;-69
2021/12/22 05:53:19;;;;;;;9.27;5.90;;;;;;;;;;4876149;29;20392;-69
2021/12/22 05:55:45;;;;;;;9.40;5.40;;;;;;;;;;4861234;29;20041;-69
2021/12/22 05:58:11;;;;;;;10.52;4.82;;;;;;;;;;4861256;29;20482;-69
2021/12/22 06:00:37;;;;;;;8.05;5.30;;;;;;;;;;4860423;29;20045;-68
2021/12/22 06:03:03;;;;;;;7.75;5.13;;;;;;;;;;4858953;29;20045;-69
2021/12/22 06:05:28;;;;;;;9.32;5.15;;;;;;;;;;4858334;29;20056;-69
2021/12/22 06:07:54;;;;;;;9.27;5.13;;;;;;;;;;4876587;29;20041;-70
2021/12/22 06:10:20;;;;;;;8.25;5.10;;;;;;;;;;4878627;29;20364;-68
2021/12/22 06:12:46;;;;;;;11.07;5.63;;;;;;;;;;4878794;29;20041;-68
2021/12/22 06:15:11;;;;;;;10.63;5.38;;;;;;;;;;4878156;29;20041;-67
2021/12/22 06:17:37;;;;;;;8.50;5.53;;;;;;;;;;4872963;29;20049;-68
2021/12/22 06:20:04;;;;;;;11.55;6.10;;;;;;;;;;4875889;29;20035;-67
2021/12/22 06:22:32;;;;;;;10.00;6.25;;;;;;;;;;4878366;29;20498;-68
2021/12/22 06:24:58;;;;;;;9.32;5.40;;;;;;;;;;4877809;29;20033;-67
2021/12/22 06:27:24;;;;;;;11.75;6.05;;;;;;;;;;4877907;29;20388;-68
2021/12/22 06:29:50;;;;;;;14.90;6.18;;;;;;;;;;4878092;29;20037;-68
2021/12/22 06:32:15;;;;;;;10.57;5.53;;;;;;;;;;4877390;29;20395;-68
2021/12/22 06:34:41;;;;;;;11.18;6.10;;;;;;;;;;4860034;29;20034;-70
2021/12/22 06:37:07;;;;;;;13.00;6.35;;;;;;;;;;4858654;29;20545;-69
2021/12/22 06:39:33;;;;;;;11.55;6.10;;;;;;;;;;4859942;29;20043;-67
2021/12/22 06:42:00;;;;;;;13.18;6.20;;;;;;;;;;4860269;29;20195;-67
2021/12/22 06:44:26;;;;;;;19.15;6.72;;;;;;;;;;4860445;29;20033;-72
2021/12/22 06:46:52;;;;;;;11.18;6.47;;;;;;;;;;4860303;29;20030;-69
2021/12/22 06:49:19;;;;;;;16.42;6.10;;;;;;;;;;4860327;29;20063;-69
2021/12/22 06:51:44;;;;;;;11.68;6.45;;;;;;;;;;4859428;29;20096;-68
2021/12/22 06:54:10;;;;;;;12.95;7.65;;;;;;;;;;4859577;29;20128;-69
2021/12/22 06:56:38;;;;;;;14.82;8.00;;;;;;;;;;4859491;29;20029;-69
2021/12/22 06:59:04;;;;;;;13.50;6.50;;;;;;;;;;4859486;29;20030;-69
2021/12/22 07:01:33;;;;;;;13.32;6.00;;;;;;;;;;4859376;29;20033;-69
2021/12/22 07:03:59;;;;;;;10.38;5.75;;;;;;;;;;4858859;29;20037;-68
2021/12/22 07:06:24;;;;;;;10.02;5.55;;;;;;;;;;4857538;29;20036;-68
2021/12/22 07:08:50;;;;;;;9.45;6.18;;;;;;;;;;4859069;29;20049;-69
2021/12/22 07:11:16;;;;;;;10.60;6.38;;;;;;;;;;4858686;29;20489;-68
2021/12/22 07:13:42;;;;;;;10.20;5.75;;;;;;;;;;4859310;29;20395;-69
2021/12/22 07:16:08;;;;;;;13.70;6.20;;;;;;;;;;4859210;29;20029;-69
2021/12/22 07:18:34;;;;;;;17.25;7.18;;;;;;;;;;4858922;29;20097;-69
2021/12/22 07:21:02;;;;;;;32.00;12.85;;;;;;;;;;4859011;29;20105;-71
2021/12/22 07:23:28;;;;;;;24.77;12.02;;;;;;;;;;4868583;29;20049;-68
2021/12/22 07:25:54;;;;;;;12.10;6.65;;;;;;;;;;4877277;29;20137;-69
2021/12/22 07:28:20;;;;;;;12.40;6.97;;;;;;;;;;4877213;29;20109;-69
2021/12/22 07:30:45;;;;;;;9.82;6.30;;;;;;;;;;4877314;29;20056;-70
2021/12/22 07:33:11;;;;;;;26.05;7.75;;;;;;;;;;4877597;29;20048;-70
2021/12/22 07:35:39;;;;;;;10.43;6.40;;;;;;;;;;4877863;29;20054;-70
2021/12/22 07:38:42;;;;;;;9.98;6.20;;;;;;;;;;4877268;29;20037;-69
2021/12/22 07:41:09;;;;;;;11.50;6.43;;;;;;;;;;4877510;29;20045;-70
2021/12/22 07:43:36;;;;;;;12.55;5.70;;;;;;;;;;4877210;29;20033;-69
2021/12/22 07:46:03;;;;;;;11.30;6.10;;;;;;;;;;4877002;29;20112;-69
2021/12/22 07:48:29;;;;;;;11.63;6.15;;;;;;;;;;4877405;29;20029;-70
2021/12/22 07:50:55;;;;;;;14.27;6.28;;;;;;;;;;4881195;29;20108;-69
2021/12/22 07:53:21;;;;;;;14.80;6.70;;;;;;;;;;4880647;29;20039;-68
2021/12/22 07:55:47;;;;;;;16.15;6.45;;;;;;;;;;4880642;29;20037;-69
2021/12/22 07:58:14;;;;;;;14.48;6.18;;;;;;;;;;4880652;29;20296;-71
2021/12/22 08:00:40;;;;;;;14.40;5.97;;;;;;;;;;4880815;29;20044;-69
2021/12/22 08:03:06;;;;;;;12.23;6.05;;;;;;;;;;4881230;29;20469;-70
2021/12/22 08:05:32;;;;;;;12.88;7.00;;;;;;;;;;4880997;29;20060;-70
2021/12/22 08:07:59;;;;;;;12.25;6.93;;;;;;;;;;4880460;29;20088;-70
2021/12/22 08:10:25;;;;;;;13.48;6.43;;;;;;;;;;4881082;29;20033;-70
2021/12/22 08:12:51;;;;;;;15.50;7.18;;;;;;;;;;4881810;29;20043;-71
2021/12/22 08:15:17;;;;;;;12.90;7.07;;;;;;;;;;4881801;29;20041;-70
2021/12/22 08:17:43;;;;;;;14.77;6.63;;;;;;;;;;4881564;29;20080;-71
2021/12/22 08:20:09;;;;;;;14.13;6.93;;;;;;;;;;4881612;29;20037;-70
2021/12/22 08:22:35;;;;;;;13.63;6.55;;;;;;;;;;4881592;29;20057;-71
2021/12/22 08:25:03;;;;;;;15.60;5.90;;;;;;;;;;4879846;29;20123;-71
2021/12/22 08:27:28;;;;;;;13.90;7.32;;;;;;;;;;4881348;29;20025;-71
2021/12/22 08:29:54;;;;;;;10.23;5.93;;;;;;;;;;4880904;29;20040;-72
2021/12/22 08:32:20;;;;;;;12.57;6.43;;;;;;;;;;4882290;29;20033;-71
2021/12/22 08:34:48;;;;;;;15.73;8.38;;;;;;;;;;4880462;29;20544;-71
2021/12/22 08:39:59;;;;;;;14.55;6.05;;;;;;;;;;4880441;29;20041;-74
2021/12/22 08:42:25;;;;;;;10.85;6.40;;;;;;;;;;4880593;29;20433;-71
2021/12/22 08:44:52;;;;;;;8.85;4.78;;;;;;;;;;4880438;29;20109;-70
2021/12/22 08:47:19;;;;;;;13.98;6.22;;;;;;;;;;4876814;29;20029;-70
2021/12/22 08:49:45;;;;;;;15.57;6.90;;;;;;;;;;4875093;29;20068;-74
2021/12/22 08:52:11;;;;;;;19.25;6.97;;;;;;;;;;4860814;29;20072;-74
2021/12/22 08:54:37;;;;;;;10.00;6.78;;;;;;;;;;4861338;29;20105;-69
2021/12/22 08:57:03;;;;;;;7.28;4.38;;;;;;;;;;4864365;29;20508;-73
2021/12/22 08:59:29;;;;;;;11.73;5.50;;;;;;;;;;4861398;29;20037;-73
2021/12/22 09:01:56;;;;;;;9.15;5.05;;;;;;;;;;4860670;29;20034;-71
2021/12/22 09:04:22;;;;;;;14.95;6.30;;;;;;;;;;4861586;29;20045;-72
2021/12/22 09:06:50;;;;;;;11.07;5.25;;;;;;;;;;4861415;29;20026;-70
2021/12/22 09:09:18;;;;;;;11.18;6.18;;;;;;;;;;4861713;29;20382;-73
2021/12/22 09:11:44;;;;;;;12.77;6.72;;;;;;;;;;4861739;29;20065;-72
2021/12/22 09:14:11;;;;;;;16.05;7.28;;;;;;;;;;4862086;29;20481;-72
2021/12/22 09:16:39;;;;;;;15.10;8.95;;;;;;;;;;4861944;29;20030;-71
2021/12/22 09:19:07;;;;;;;16.60;6.90;;;;;;;;;;4858657;29;20037;-71
2021/12/22 09:21:33;;;;;;;16.02;7.22;;;;;;;;;;4853306;29;20104;-70
2021/12/22 09:23:59;;;;;;;13.50;6.63;;;;;;;;;;4861332;29;20033;-71
2021/12/22 09:26:25;;;;;;;25.00;7.85;;;;;;;;;;4861639;29;20026;-74
2021/12/22 09:28:52;;;;;;;14.32;6.72;;;;;;;;;;4861880;29;20281;-69
2021/12/22 09:31:18;;;;;;;12.93;5.85;;;;;;;;;;4858693;29;20476;-71
2021/12/22 09:33:44;;;;;;;14.73;5.20;;;;;;;;;;4852441;29;20057;-72
2021/12/22 09:36:11;;;;;;;13.35;6.07;;;;;;;;;;4861088;29;20396;-69
2021/12/22 09:38:38;;;;;;;8.43;4.68;;;;;;;;;;4856238;29;20090;-71
2021/12/22 09:41:05;;;;;;;10.93;5.72;;;;;;;;;;4858067;29;20025;-70
2021/12/22 09:43:31;;;;;;;10.15;5.47;;;;;;;;;;4858024;29;20065;-73
2021/12/22 09:46:02;;;;;;;11.93;6.53;;;;;;;;;;4861045;29;20529;-69
2021/12/22 09:53:28;;;;;;;8.30;5.25;;;;;;;;;;4860639;29;20049;-70
2021/12/22 09:55:58;;;;;;;10.07;7.13;;;;;;;;;;4859284;29;20042;-72
2021/12/22 09:58:24;;;;;;;8.02;5.25;;;;;;;;;;4859114;29;20062;-71
2021/12/22 10:00:51;;;;;;;9.45;5.63;;;;;;;;;;4855648;29;20064;-71
2021/12/22 10:03:17;;;;;;;16.63;7.82;;;;;;;;;;4860382;29;20044;-72
2021/12/22 10:05:46;;;;;;;7.22;4.50;;;;;;;;;;4860418;29;20030;-72
2021/12/22 10:08:26;;;;;;;7.35;4.65;;;;;;;;;;4860145;29;20122;-71
2021/12/22 10:11:08;;;;;;;8.50;5.30;;;;;;;;;;4874203;29;20060;-72
2021/12/22 10:13:35;;;;;;;7.10;4.35;;;;;;;;;;4860545;29;20045;-71
2021/12/22 10:16:17;;;;;;;12.23;5.65;;;;;;;;;;4860316;29;20033;-72
2021/12/22 10:18:43;;;;;;;8.40;5.00;;;;;;;;;;4858299;29;20121;-70
2021/12/22 10:21:23;;;;;;;9.23;4.70;;;;;;;;;;4858685;29;20112;-70
2021/12/22 10:23:52;;;;;;;12.38;4.22;;;;;;;;;;4860012;29;20045;-71
2021/12/22 10:26:21;;;;;;;11.25;6.32;;;;;;;;;;4854237;29;20147;-70
2021/12/22 10:29:07;;;;;;;10.35;5.18;;;;;;;;;;4857811;29;20094;-71
2021/12/22 10:31:41;;;;;;;7.70;4.57;;;;;;;;;;4841255;29;20095;-71
2021/12/22 10:34:11;;;;;;;6.22;3.85;;;;;;;;;;4841286;29;20041;-70
2021/12/22 10:36:51;;;;;;;8.35;4.30;;;;;;;;;;4840684;29;20034;-72
2021/12/22 10:39:37;;;;;;;9.10;4.45;;;;;;;;;;4840868;29;20095;-73
2021/12/22 10:42:09;;;;;;;9.18;4.53;;;;;;;;;;4840957;29;20489;-72
2021/12/22 10:44:39;;;;;;;12.10;5.82;;;;;;;;;;4840861;29;20094;-73
2021/12/22 10:47:19;;;;;;;16.70;6.00;;;;;;;;;;4841569;29;20549;-75
2021/12/22 10:50:02;;;;;;;8.80;4.88;;;;;;;;;;4841449;29;20034;-74
2021/12/22 10:52:30;;;;;;;8.13;4.20;;;;;;;;;;4849710;29;20045;-72
2021/12/22 10:55:10;;;;;;;8.98;4.68;;;;;;;;;;4853831;29;20029;-72
2021/12/22 10:57:38;;;;;;;7.75;4.47;;;;;;;;;;4856765;29;20030;-72
2021/12/22 11:00:25;;;;;;;7.70;3.47;;;;;;;;;;4859195;29;20037;-72
2021/12/22 11:03:02;;;;;;;22.80;8.05;;;;;;;;;;4857611;29;20155;-71
2021/12/22 11:05:29;;;;;;;9.25;4.93;;;;;;;;;;4857913;29;20045;-70
2021/12/22 11:07:56;;;;;;;14.07;4.82;;;;;;;;;;4859016;29;20042;-72
2021/12/22 11:10:27;;;;;;;10.25;4.10;;;;;;;;;;4858994;29;20049;-70
2021/12/22 11:13:03;;;;;;;12.95;4.53;;;;;;;;;;4858885;29;20484;-71
2021/12/22 11:15:30;;;;;;;10.50;5.90;;;;;;;;;;4859170;29;20129;-70
2021/12/22 11:17:56;;;;;;;11.38;4.70;;;;;;;;;;4858986;29;20030;-72
2021/12/22 11:20:23;;;;;;;8.15;4.60;;;;;;;;;;4859267;29;20101;-71
2021/12/22 11:23:00;;;;;;;10.13;4.40;;;;;;;;;;4858871;29;20029;-71
2021/12/22 11:25:28;;;;;;;8.82;4.88;;;;;;;;;;4859158;29;20037;-71
2021/12/22 11:27:55;;;;;;;16.58;5.82;;;;;;;;;;4859314;29;20032;-71
2021/12/22 11:30:25;;;;;;;7.90;4.00;;;;;;;;;;4853467;29;20041;-72
2021/12/22 11:32:52;;;;;;;16.95;5.93;;;;;;;;;;4844587;29;20054;-70
2021/12/22 11:35:20;;;;;;;9.98;4.82;;;;;;;;;;4840817;29;20030;-71
2021/12/22 11:37:46;;;;;;;8.43;6.28;;;;;;;;;;4841088;29;20034;-69
2021/12/22 11:40:14;;;;;;;7.15;4.40;;;;;;;;;;4840594;29;20075;-71
2021/12/22 11:42:40;;;;;;;10.13;5.22;;;;;;;;;;4840932;29;20053;-70
2021/12/22 11:45:19;;;;;;;8.57;4.32;;;;;;;;;;4841361;29;20076;-70
2021/12/22 11:47:52;;;;;;;7.43;4.38;;;;;;;;;;4858701;29;20037;-72
2021/12/22 11:50:25;;;;;;;11.20;5.07;;;;;;;;;;4858983;29;20089;-71
2021/12/22 11:53:00;;;;;;;8.98;4.63;;;;;;;;;;4871930;29;20485;-72
2021/12/22 11:55:28;;;;;;;12.05;4.45;;;;;;;;;;4855321;29;20346;-69
2021/12/22 11:58:13;;;;;;;10.57;4.97;;;;;;;;;;4858709;29;20036;-72
2021/12/22 12:00:42;;;;;;;10.63;4.60;;;;;;;;;;4859661;29;20037;-72
2021/12/22 12:03:30;;;;;;;8.77;5.22;;;;;;;;;;4868086;29;20053;-71
2021/12/22 12:06:23;;;;;;;16.75;6.40;;;;;;;;;;4880428;29;20060;-70
2021/12/22 12:08:57;;;;;;;8.70;4.78;;;;;;;;;;4877775;29;20088;-73
2021/12/22 12:11:33;;;;;;;7.45;4.65;;;;;;;;;;4877703;29;20404;-71
2021/12/22 12:14:06;;;;;;;8.25;5.10;;;;;;;;;;4877495;29;20100;-75
2021/12/22 12:22:35;;;;;;;9.63;5.78;;;;;;;;;;4877492;29;20197;-74
2021/12/22 12:25:10;;;;;;;13.68;5.45;;;;;;;;;;4877794;29;20100;-73
2021/12/22 12:27:52;;;;;;;13.18;5.25;;;;;;;;;;4877607;29;20081;-72
2021/12/22 12:30:20;;;;;;;15.73;6.63;;;;;;;;;;4877792;29;20093;-72
2021/12/22 12:32:48;;;;;;;13.32;5.72;;;;;;;;;;4877589;29;20093;-72
2021/12/22 12:35:23;;;;;;;9.90;4.55;;;;;;;;;;4879308;29;20041;-73
2021/12/22 12:38:16;;;;;;;7.60;4.15;;;;;;;;;;4881121;29;20040;-72
2021/12/22 12:46:27;;;;;;;8.52;4.53;;;;;;;;;;4880695;29;20052;-70
2021/12/22 12:49:06;;;;;;;6.47;4.30;;;;;;;;;;4881228;29;20047;-71
2021/12/22 12:51:44;;;;;;;12.07;5.25;;;;;;;;;;4880790;29;20117;-70
2021/12/22 12:54:16;;;;;;;8.90;5.00;;;;;;;;;;4881069;29;20074;-71
2021/12/22 12:56:54;;;;;;;9.05;4.90;;;;;;;;;;4880925;29;20037;-72
2021/12/22 12:59:26;;;;;;;7.78;5.43;;;;;;;;;;4881318;29;20047;-71
2021/12/22 13:01:52;;;;;;;9.88;5.15;;;;;;;;;;4881070;29;20045;-70
2021/12/22 13:04:20;;;;;;;10.35;5.90;;;;;;;;;;4880914;29;20115;-73
2021/12/22 13:06:47;;;;;;;10.60;6.10;;;;;;;;;;4880668;29;20045;-71
2021/12/22 13:09:23;;;;;;;13.02;5.63;;;;;;;;;;4880212;29;20049;-71
2021/12/22 13:12:48;;;;;;;11.85;6.57;;;;;;;;;;4878645;29;20037;-70
2021/12/22 13:17:58;;;;;;;10.73;6.18;;;;;;;;;;4879300;29;20048;-69
2021/12/22 13:20:28;;;;;;;13.20;6.07;;;;;;;;;;4878806;29;20082;-71
2021/12/22 13:22:57;;;;;;;12.40;6.78;;;;;;;;;;4879211;29;20087;-71
2021/12/22 13:25:31;;;;;;;13.52;7.18;;;;;;;;;;4879064;29;20052;-68
2021/12/22 13:28:20;;;;;;;17.90;7.10;;;;;;;;;;4878601;29;20041;-69
2021/12/22 13:30:47;;;;;;;11.50;6.93;;;;;;;;;;4867015;29;20105;-71
2021/12/22 13:33:21;;;;;;;12.07;6.78;;;;;;;;;;4860725;29;20044;-71
2021/12/22 13:36:12;;;;;;;8.77;5.97;;;;;;;;;;4875341;29;20557;-73
2021/12/22 13:38:43;;;;;;;16.80;7.20;;;;;;;;;;4861310;29;20034;-72
2021/12/22 13:41:15;;;;;;;11.88;6.03;;;;;;;;;;4861103;29;20037;-71
2021/12/22 13:43:48;;;;;;;14.40;5.60;;;;;;;;;;4861003;29;20034;-70
2021/12/22 13:46:22;;;;;;;13.07;5.72;;;;;;;;;;4860421;29;20477;-73
2021/12/22 13:48:55;;;;;;;11.80;6.22;;;;;;;;;;4861051;29;20045;-73
2021/12/22 13:51:49;;;;;;;10.15;6.47;;;;;;;;;;4861077;29;20052;-71
2021/12/22 13:54:20;;;;;;;11.43;6.15;;;;;;;;;;4859714;29;20785;-69
2021/12/22 13:56:49;;;;;;;12.45;6.32;;;;;;;;;;4860864;29;20038;-70
2021/12/22 13:59:22;;;;;;;10.48;5.00;;;;;;;;;;4861589;29;20509;-71
2021/12/22 14:01:51;;;;;;;10.30;5.50;;;;;;;;;;4861331;29;20048;-74
2021/12/22 14:04:36;;;;;;;11.35;5.93;;;;;;;;;;4861111;29;20029;-70
2021/12/22 14:07:12;;;;;;;11.25;5.80;;;;;;;;;;4860589;29;20045;-71
2021/12/22 14:09:49;;;;;;;12.73;5.80;;;;;;;;;;4860889;29;20577;-73
2021/12/22 14:12:33;;;;;;;9.18;4.65;;;;;;;;;;4860722;29;20077;-75
2021/12/22 14:15:00;;;;;;;8.65;4.75;;;;;;;;;;4859937;29;20541;-72
2021/12/22 14:17:31;;;;;;;8.18;4.50;;;;;;;;;;4860507;29;20029;-75
2021/12/22 14:20:02;;;;;;;8.50;5.20;;;;;;;;;;4859903;29;20045;-71
2021/12/22 14:22:32;;;;;;;9.82;5.20;;;;;;;;;;4858727;29;20046;-72
2021/12/22 14:25:23;;;;;;;9.20;4.97;;;;;;;;;;4860278;29;20029;-71
2021/12/22 14:27:52;;;;;;;9.43;4.55;;;;;;;;;;4859851;29;20052;-70
2021/12/22 14:30:21;;;;;;;9.23;5.53;;;;;;;;;;4860134;29;20029;-71
2021/12/22 14:32:54;;;;;;;9.38;5.40;;;;;;;;;;4866246;29;20052;-71
2021/12/22 14:35:21;;;;;;;8.52;5.32;;;;;;;;;;4877486;29;20052;-70
2021/12/22 14:37:58;;;;;;;9.52;5.32;;;;;;;;;;4862904;29;20034;-71
2021/12/22 14:40:27;;;;;;;12.02;5.80;;;;;;;;;;4859660;29;20555;-71
2021/12/22 14:43:03;;;;;;;14.80;7.32;;;;;;;;;;4859051;29;20112;-71
2021/12/22 14:45:49;;;;;;;26.98;8.80;;;;;;;;;;4859082;29;20481;-70
2021/12/22 14:48:23;;;;;;;12.52;6.10;;;;;;;;;;4858892;29;20044;-71
2021/12/22 14:51:03;;;;;;;;;;;;;;;;;;4859842;29;20033;-70
2021/12/22 14:54:02;;;;;;;11.90;6.15;;;;;;;;;;4859349;29;20368;-70
2021/12/22 14:56:43;;;;;;;9.80;5.45;;;;;;;;;;4857885;29;20478;-69
2021/12/22 14:59:10;;;;;;;9.73;6.10;;;;;;;;;;4859109;29;20085;-69
2021/12/22 15:01:36;;;;;;;10.27;5.47;;;;;;;;;;4859259;29;20116;-70
2021/12/22 15:04:02;;;;;;;14.48;6.85;;;;;;;;;;4858741;29;20116;-69
2021/12/22 15:06:29;;;;;;;15.45;6.20;;;;;;;;;;4859266;29;20032;-72
2021/12/22 15:08:56;;;;;;;8.55;5.25;;;;;;;;;;4859036;29;20076;-70
2021/12/22 15:11:24;;;;;;;15.57;8.23;;;;;;;;;;4840017;29;20450;-68
2021/12/22 15:13:51;;;;;;;25.13;12.48;;;;;;;;;;4840647;29;20383;-70
2021/12/22 15:16:19;;;;;;;18.60;9.35;;;;;;;;;;4840754;29;20040;-69
2021/12/22 15:18:45;;;;;;;17.23;8.85;;;;;;;;;;4840242;29;20038;-71
2021/12/22 15:21:12;;;;;;;17.25;8.13;;;;;;;;;;4840276;29;20109;-70
2021/12/22 15:23:39;;;;;;;17.90;8.65;;;;;;;;;;4840021;29;20459;-70